sensor_id;sensor_type;location;lat;lon;timestamp;pressure;altitude;pressure_sealevel;temperature;humidity
43878;BME280;29815;48.184;11.268;2024-03-02T00:02:15;94509.81;;;4.67;100.00
43878;BME280;29815;48.184;11.268;2024-03-02T00:04:45;94508.75;;;4.68;100.00
43878;BME280;29815;48.184;11.268;2024-03-02T00:07:15;94506.91;;;4.68;100.00
43878;BME280;29815;48.184;11.268;2024-03-02T00:09:44;94506.91;;;4.68;100.00
43878;BME280;29815;48.184;11.268;2024-03-02T00:12:15;94504.47;;;4.67;100.00
43878;BME280;29815;48.184;11.268;2024-03-02T00:14:45;94502.88;;;4.66;100.00
43878;BME280;29815;48.184;11.268;2024-03-02T00:17:20;94497.53;;;4.66;100.00
43878;BME280;29815;48.184;11.268;2024-03-02T00:19:53;94500.22;;;4.66;100.00
43878;BME280;29815;48.184;11.268;2024-03-02T00:22:22;94500.22;;;4.66;100.00
43878;BME280;29815;48.184;11.268;2024-03-02T00:24:52;94498.91;;;4.63;100.00
43878;BME280;29815;48.184;11.268;2024-03-02T00:27:23;94494.38;;;4.64;100.00
43878;BME280;29815;48.184;11.268;2024-03-02T00:29:53;94498.91;;;4.63;100.00
43878;BME280;29815;48.184;11.268;2024-03-02T00:32:22;94498.91;;;4.63;100.00
43878;BME280;29815;48.184;11.268;2024-03-02T00:34:53;94499.41;;;4.60;100.00
43878;BME280;29815;48.184;11.268;2024-03-02T00:37:22;94501.53;;;4.58;100.00
43878;BME280;29815;48.184;11.268;2024-03-02T00:39:52;94500.72;;;4.58;100.00
43878;BME280;29815;48.184;11.268;2024-03-02T00:42:23;94498.31;;;4.56;100.00
43878;BME280;29815;48.184;11.268;2024-03-02T00:44:52;94499.13;;;4.57;100.00
43878;BME280;29815;48.184;11.268;2024-03-02T00:47:21;94504.44;;;4.57;100.00
43878;BME280;29815;48.184;11.268;2024-03-02T00:49:51;94502.84;;;4.56;100.00
43878;BME280;29815;48.184;11.268;2024-03-02T00:52:20;94506.81;;;4.53;100.00
43878;BME280;29815;48.184;11.268;2024-03-02T00:54:50;94512.41;;;4.52;100.00
43878;BME280;29815;48.184;11.268;2024-03-02T00:57:19;94502.00;;;4.50;100.00
43878;BME280;29815;48.184;11.268;2024-03-02T00:59:52;94510.00;;;4.50;100.00
43878;BME280;29815;48.184;11.268;2024-03-02T01:02:21;94507.59;;;4.49;100.00
43878;BME280;29815;48.184;11.268;2024-03-02T01:04:50;94508.66;;;4.48;100.00
43878;BME280;29815;48.184;11.268;2024-03-02T01:07:19;94505.19;;;4.47;100.00
43878;BME280;29815;48.184;11.268;2024-03-02T01:09:49;94508.34;;;4.44;100.00
43878;BME280;29815;48.184;11.268;2024-03-02T01:12:18;94515.00;;;4.41;100.00
43878;BME280;29815;48.184;11.268;2024-03-02T01:14:48;94504.59;;;4.40;100.00
43878;BME280;29815;48.184;11.268;2024-03-02T01:17:19;94514.44;;;4.39;100.00
43878;BME280;29815;48.184;11.268;2024-03-02T01:19:48;94514.97;;;4.36;100.00
43878;BME280;29815;48.184;11.268;2024-03-02T01:22:17;94510.72;;;4.35;100.00
43878;BME280;29815;48.184;11.268;2024-03-02T01:24:53;94517.09;;;4.34;100.00
43878;BME280;29815;48.184;11.268;2024-03-02T01:27:22;94511.22;;;4.32;100.00
43878;BME280;29815;48.184;11.268;2024-03-02T01:29:52;94509.38;;;4.33;100.00
43878;BME280;29815;48.184;11.268;2024-03-02T01:32:23;94509.38;;;4.33;100.00
43878;BME280;29815;48.184;11.268;2024-03-02T01:34:53;94503.22;;;4.32;100.00
43878;BME280;29815;48.184;11.268;2024-03-02T01:37:22;94503.78;;;4.34;100.00
43878;BME280;29815;48.184;11.268;2024-03-02T01:39:51;94496.59;;;4.35;100.00
43878;BME280;29815;48.184;11.268;2024-03-02T01:42:20;94496.34;;;4.36;100.00
43878;BME280;29815;48.184;11.268;2024-03-02T01:44:50;94495.00;;;4.39;100.00
43878;BME280;29815;48.184;11.268;2024-03-02T01:47:19;94491.53;;;4.38;100.00
43878;BME280;29815;48.184;11.268;2024-03-02T01:49:50;94493.69;;;4.41;100.00
43878;BME280;29815;48.184;11.268;2024-03-02T01:52:19;94492.88;;;4.41;100.00
43878;BME280;29815;48.184;11.268;2024-03-02T01:54:49;94491.00;;;4.36;100.00
43878;BME280;29815;48.184;11.268;2024-03-02T01:57:18;94497.91;;;4.32;100.00
43878;BME280;29815;48.184;11.268;2024-03-02T01:59:48;94497.88;;;4.27;100.00
43878;BME280;29815;48.184;11.268;2024-03-02T02:02:18;94493.31;;;4.23;100.00
43878;BME280;29815;48.184;11.268;2024-03-02T02:04:50;94494.34;;;4.22;100.00
43878;BME280;29815;48.184;11.268;2024-03-02T02:07:19;94500.50;;;4.22;100.00
43878;BME280;29815;48.184;11.268;2024-03-02T02:09:48;94494.34;;;4.22;100.00
43878;BME280;29815;48.184;11.268;2024-03-02T02:12:18;94493.00;;;4.19;100.00
43878;BME280;29815;48.184;11.268;2024-03-02T02:14:48;94484.22;;;4.19;100.00
43878;BME280;29815;48.184;11.268;2024-03-02T02:17:18;94485.28;;;4.18;100.00
43878;BME280;29815;48.184;11.268;2024-03-02T02:19:47;94485.00;;;4.19;100.00
43878;BME280;29815;48.184;11.268;2024-03-02T02:22:18;94481.56;;;4.19;100.00
43878;BME280;29815;48.184;11.268;2024-03-02T02:24:47;94483.97;;;4.20;100.00
43878;BME280;29815;48.184;11.268;2024-03-02T02:27:16;94475.16;;;4.20;100.00
43878;BME280;29815;48.184;11.268;2024-03-02T02:29:46;94481.03;;;4.22;100.00
43878;BME280;29815;48.184;11.268;2024-03-02T02:32:15;94474.91;;;4.21;100.00
43878;BME280;29815;48.184;11.268;2024-03-02T02:34:45;94472.53;;;4.25;100.00
43878;BME280;29815;48.184;11.268;2024-03-02T02:37:14;94465.66;;;4.29;100.00
43878;BME280;29815;48.184;11.268;2024-03-02T02:39:45;94464.34;;;4.31;100.00
43878;BME280;29815;48.184;11.268;2024-03-02T02:42:14;94467.81;;;4.32;100.00
43878;BME280;29815;48.184;11.268;2024-03-02T02:44:43;94463.28;;;4.32;100.00
43878;BME280;29815;48.184;11.268;2024-03-02T02:47:13;94461.66;;;4.31;100.00
43878;BME280;29815;48.184;11.268;2024-03-02T02:49:42;94469.41;;;4.33;100.00
43878;BME280;29815;48.184;11.268;2024-03-02T02:52:12;94464.59;;;4.30;100.00
43878;BME280;29815;48.184;11.268;2024-03-02T02:54:41;94459.25;;;4.30;100.00
43878;BME280;29815;48.184;11.268;2024-03-02T02:57:11;94462.19;;;4.28;100.00
43878;BME280;29815;48.184;11.268;2024-03-02T02:59:41;94464.84;;;4.28;100.00
43878;BME280;29815;48.184;11.268;2024-03-02T03:02:10;94464.31;;;4.26;100.00
43878;BME280;29815;48.184;11.268;2024-03-02T03:04:40;94468.03;;;4.25;100.00
43878;BME280;29815;48.184;11.268;2024-03-02T03:07:09;94470.13;;;4.23;100.00
43878;BME280;29815;48.184;11.268;2024-03-02T03:09:38;94473.06;;;4.22;100.00
43878;BME280;29815;48.184;11.268;2024-03-02T03:12:08;94474.91;;;4.21;100.00
43878;BME280;29815;48.184;11.268;2024-03-02T03:14:40;94472.50;;;4.20;100.00
43878;BME280;29815;48.184;11.268;2024-03-02T03:17:09;94472.50;;;4.20;100.00
43878;BME280;29815;48.184;11.268;2024-03-02T03:19:38;94475.69;;;4.17;100.00
43878;BME280;29815;48.184;11.268;2024-03-02T03:22:07;94473.28;;;4.15;100.00
43878;BME280;29815;48.184;11.268;2024-03-02T03:24:37;94470.06;;;4.13;100.00
43878;BME280;29815;48.184;11.268;2024-03-02T03:27:06;94470.06;;;4.13;100.00
43878;BME280;29815;48.184;11.268;2024-03-02T03:29:36;94469.00;;;4.14;100.00
43878;BME280;29815;48.184;11.268;2024-03-02T03:32:07;94467.13;;;4.15;100.00
43878;BME280;29815;48.184;11.268;2024-03-02T03:34:37;94475.94;;;4.15;100.00
43878;BME280;29815;48.184;11.268;2024-03-02T03:37:06;94488.75;;;4.18;100.00
43878;BME280;29815;48.184;11.268;2024-03-02T03:39:36;94486.84;;;4.14;100.00
43878;BME280;29815;48.184;11.268;2024-03-02T03:42:05;94485.22;;;4.13;100.00
43878;BME280;29815;48.184;11.268;2024-03-02T03:44:35;94496.13;;;4.11;100.00
43878;BME280;29815;48.184;11.268;2024-03-02T03:47:04;94492.16;;;4.08;100.00
43878;BME280;29815;48.184;11.268;2024-03-02T03:49:35;94501.19;;;4.07;100.00
43878;BME280;29815;48.184;11.268;2024-03-02T03:52:05;94503.31;;;4.05;100.00
43878;BME280;29815;48.184;11.268;2024-03-02T03:54:34;94503.56;;;4.04;100.00
43878;BME280;29815;48.184;11.268;2024-03-02T03:57:05;94502.75;;;4.03;100.00
43878;BME280;29815;48.184;11.268;2024-03-02T03:59:34;94503.84;;;4.07;100.00
43878;BME280;29815;48.184;11.268;2024-03-02T04:02:05;94502.00;;;4.08;100.00
43878;BME280;29815;48.184;11.268;2024-03-02T04:04:36;94494.56;;;4.10;100.00
43878;BME280;29815;48.184;11.268;2024-03-02T04:07:06;94497.50;;;4.14;100.00
43878;BME280;29815;48.184;11.268;2024-03-02T04:09:35;94505.22;;;4.15;100.00
43878;BME280;29815;48.184;11.268;2024-03-02T04:12:05;94508.44;;;4.17;100.00
43878;BME280;29815;48.184;11.268;2024-03-02T04:14:34;94507.09;;;4.15;100.00
43878;BME280;29815;48.184;11.268;2024-03-02T04:17:06;94501.75;;;4.15;100.00
43878;BME280;29815;48.184;11.268;2024-03-02T04:19:37;94504.94;;;4.12;100.00
43878;BME280;29815;48.184;11.268;2024-03-02T04:22:07;94516.38;;;4.12;100.00
43878;BME280;29815;48.184;11.268;2024-03-02T04:24:48;94517.72;;;4.10;100.00
43878;BME280;29815;48.184;11.268;2024-03-02T04:27:17;94527.81;;;4.07;100.00
43878;BME280;29815;48.184;11.268;2024-03-02T04:29:47;94521.13;;;4.05;100.00
43878;BME280;29815;48.184;11.268;2024-03-02T04:32:17;94521.13;;;4.05;100.00
43878;BME280;29815;48.184;11.268;2024-03-02T04:34:47;94526.47;;;4.05;100.00
43878;BME280;29815;48.184;11.268;2024-03-02T04:37:17;94519.78;;;4.02;100.00
43878;BME280;29815;48.184;11.268;2024-03-02T04:39:46;94530.44;;;4.02;100.00
43878;BME280;29815;48.184;11.268;2024-03-02T04:42:16;94528.31;;;4.04;100.00
43878;BME280;29815;48.184;11.268;2024-03-02T04:44:45;94535.50;;;4.04;100.00
43878;BME280;29815;48.184;11.268;2024-03-02T04:47:14;94530.44;;;4.02;100.00
43878;BME280;29815;48.184;11.268;2024-03-02T04:49:45;94538.16;;;4.04;100.00
43878;BME280;29815;48.184;11.268;2024-03-02T04:52:15;94530.44;;;4.02;100.00
43878;BME280;29815;48.184;11.268;2024-03-02T04:54:44;94544.56;;;4.03;100.00
43878;BME280;29815;48.184;11.268;2024-03-02T04:57:27;94543.75;;;4.02;100.00
43878;BME280;29815;48.184;11.268;2024-03-02T04:59:57;94538.16;;;4.04;100.00
43878;BME280;29815;48.184;11.268;2024-03-02T05:02:26;94545.66;;;4.07;100.00
43878;BME280;29815;48.184;11.268;2024-03-02T05:04:57;94541.38;;;4.06;100.00
43878;BME280;29815;48.184;11.268;2024-03-02T05:07:26;94540.88;;;4.09;100.00
43878;BME280;29815;48.184;11.268;2024-03-02T05:09:55;94532.34;;;4.07;100.00
43878;BME280;29815;48.184;11.268;2024-03-02T05:12:25;94548.34;;;4.12;100.00
43878;BME280;29815;48.184;11.268;2024-03-02T05:15:24;94553.91;;;4.11;100.00
43878;BME280;29815;48.184;11.268;2024-03-02T05:17:54;94552.06;;;4.11;100.00
43878;BME280;29815;48.184;11.268;2024-03-02T05:20:26;94546.47;;;4.13;100.00
43878;BME280;29815;48.184;11.268;2024-03-02T05:22:55;94548.34;;;4.12;100.00
43878;BME280;29815;48.184;11.268;2024-03-02T05:25:25;94544.63;;;4.13;100.00
43878;BME280;29815;48.184;11.268;2024-03-02T05:27:54;94543.25;;;4.11;100.00
43878;BME280;29815;48.184;11.268;2024-03-02T05:30:24;94543.25;;;4.11;100.00
43878;BME280;29815;48.184;11.268;2024-03-02T05:32:54;94541.94;;;4.13;100.00
43878;BME280;29815;48.184;11.268;2024-03-02T05:35:24;94546.72;;;4.11;100.00
43878;BME280;29815;48.184;11.268;2024-03-02T05:37:54;94535.56;;;4.09;100.00
43878;BME280;29815;48.184;11.268;2024-03-02T05:40:24;94538.72;;;4.11;100.00
43878;BME280;29815;48.184;11.268;2024-03-02T05:42:53;94541.69;;;4.10;100.00
43878;BME280;29815;48.184;11.268;2024-03-02T05:45:22;94536.59;;;4.08;100.00
43878;BME280;29815;48.184;11.268;2024-03-02T05:47:52;94543.00;;;4.07;100.00
43878;BME280;29815;48.184;11.268;2024-03-02T05:50:21;94540.84;;;4.04;100.00
43878;BME280;29815;48.184;11.268;2024-03-02T05:52:52;94544.28;;;4.04;100.00
43878;BME280;29815;48.184;11.268;2024-03-02T05:55:21;94546.66;;;4.01;100.00
43878;BME280;29815;48.184;11.268;2024-03-02T05:57:51;94546.91;;;3.99;100.00
43878;BME280;29815;48.184;11.268;2024-03-02T06:00:39;94547.16;;;3.98;100.00
43878;BME280;29815;48.184;11.268;2024-03-02T06:03:08;94549.28;;;3.96;100.00
43878;BME280;29815;48.184;11.268;2024-03-02T06:05:38;94538.88;;;3.94;100.00
43878;BME280;29815;48.184;11.268;2024-03-02T06:08:10;94538.88;;;3.94;100.00
43878;BME280;29815;48.184;11.268;2024-03-02T06:10:39;94538.88;;;3.94;100.00
43878;BME280;29815;48.184;11.268;2024-03-02T06:13:09;94543.41;;;3.94;100.00
43878;BME280;29815;48.184;11.268;2024-03-02T06:15:38;94540.19;;;3.92;100.00
43878;BME280;29815;48.184;11.268;2024-03-02T06:18:07;94540.97;;;3.92;100.00
43878;BME280;29815;48.184;11.268;2024-03-02T06:20:37;94542.03;;;3.91;100.00
43878;BME280;29815;48.184;11.268;2024-03-02T06:23:06;94540.97;;;3.92;100.00
43878;BME280;29815;48.184;11.268;2024-03-02T06:25:37;94537.28;;;3.93;100.00
43878;BME280;29815;48.184;11.268;2024-03-02T06:28:06;94542.59;;;3.93;100.00
43878;BME280;29815;48.184;11.268;2024-03-02T06:30:36;94537.28;;;3.93;100.00
43878;BME280;29815;48.184;11.268;2024-03-02T06:33:05;94544.44;;;3.93;100.00
43878;BME280;29815;48.184;11.268;2024-03-02T06:35:34;94546.31;;;3.92;100.00
43878;BME280;29815;48.184;11.268;2024-03-02T06:38:04;94550.28;;;3.90;100.00
43878;BME280;29815;48.184;11.268;2024-03-02T06:40:33;94556.34;;;3.85;100.00
43878;BME280;29815;48.184;11.268;2024-03-02T06:43:06;94553.91;;;3.79;100.00
43878;BME280;29815;48.184;11.268;2024-03-02T06:45:35;94548.28;;;3.75;100.00
43878;BME280;29815;48.184;11.268;2024-03-02T06:48:05;94556.53;;;3.73;100.00
43878;BME280;29815;48.184;11.268;2024-03-02T06:50:35;94560.19;;;3.67;100.00
43878;BME280;29815;48.184;11.268;2024-03-02T06:53:04;94551.59;;;3.60;100.00
43878;BME280;29815;48.184;11.268;2024-03-02T06:55:34;94549.66;;;3.56;100.00
43878;BME280;29815;48.184;11.268;2024-03-02T06:58:03;94555.00;;;3.56;100.00
43878;BME280;29815;48.184;11.268;2024-03-02T07:00:34;94552.63;;;3.54;100.00
43878;BME280;29815;48.184;11.268;2024-03-02T07:03:04;94551.28;;;3.57;100.00
43878;BME280;29815;48.184;11.268;2024-03-02T07:05:34;94552.88;;;3.58;100.00
43878;BME280;29815;48.184;11.268;2024-03-02T07:08:04;94560.63;;;3.59;100.00
43878;BME280;29815;48.184;11.268;2024-03-02T07:10:34;94555.84;;;3.61;100.00
43878;BME280;29815;48.184;11.268;2024-03-02T07:13:03;94557.53;;;3.67;100.00
43878;BME280;29815;48.184;11.268;2024-03-02T07:15:34;94554.97;;;3.78;100.00
43878;BME280;29815;48.184;11.268;2024-03-02T07:18:22;94552.88;;;3.85;100.00
43878;BME280;29815;48.184;11.268;2024-03-02T07:20:51;94550.81;;;3.92;100.00
43878;BME280;29815;48.184;11.268;2024-03-02T07:23:21;94554.91;;;3.99;100.00
43878;BME280;29815;48.184;11.268;2024-03-02T07:25:52;94554.44;;;4.07;100.00
43878;BME280;29815;48.184;11.268;2024-03-02T07:28:25;94551.78;;;4.13;100.00
43878;BME280;29815;48.184;11.268;2024-03-02T07:30:59;94557.72;;;4.20;100.00
43878;BME280;29815;48.184;11.268;2024-03-02T07:33:29;94560.44;;;4.25;100.00
43878;BME280;29815;48.184;11.268;2024-03-02T07:35:58;94557.31;;;4.33;100.00
43878;BME280;29815;48.184;11.268;2024-03-02T07:38:32;94550.44;;;4.42;100.00
43878;BME280;29815;48.184;11.268;2024-03-02T07:41:02;94552.63;;;4.50;100.00
43878;BME280;29815;48.184;11.268;2024-03-02T07:43:32;94560.19;;;4.68;100.00
43878;BME280;29815;48.184;11.268;2024-03-02T07:46:03;94557.06;;;4.76;100.00
43878;BME280;29815;48.184;11.268;2024-03-02T07:48:33;94561.63;;;4.81;100.00
43878;BME280;29815;48.184;11.268;2024-03-02T07:51:03;94557.63;;;4.84;100.00
43878;BME280;29815;48.184;11.268;2024-03-02T07:53:33;94562.75;;;4.90;100.00
43878;BME280;29815;48.184;11.268;2024-03-02T07:56:02;94563.81;;;4.94;100.00
43878;BME280;29815;48.184;11.268;2024-03-02T07:58:32;94561.97;;;5.00;100.00
43878;BME280;29815;48.184;11.268;2024-03-02T08:01:04;94568.41;;;5.04;100.00
43878;BME280;29815;48.184;11.268;2024-03-02T08:03:33;94562.25;;;4.98;100.00
43878;BME280;29815;48.184;11.268;2024-03-02T08:06:04;94573.72;;;4.99;100.00
43878;BME280;29815;48.184;11.268;2024-03-02T08:08:33;94573.97;;;4.92;100.00
43878;BME280;29815;48.184;11.268;2024-03-02T08:11:03;94575.53;;;4.93;100.00
43878;BME280;29815;48.184;11.268;2024-03-02T08:13:32;94581.41;;;4.95;100.00
43878;BME280;29815;48.184;11.268;2024-03-02T08:16:01;94584.63;;;4.92;100.00
43878;BME280;29815;48.184;11.268;2024-03-02T08:18:34;94576.34;;;4.94;100.00
43878;BME280;29815;48.184;11.268;2024-03-02T08:21:04;94585.16;;;4.99;100.00
43878;BME280;29815;48.184;11.268;2024-03-02T08:23:35;94579.34;;;5.07;100.00
43878;BME280;29815;48.184;11.268;2024-03-02T08:26:08;94581.81;;;5.24;100.00
43878;BME280;29815;48.184;11.268;2024-03-02T08:28:38;94578.38;;;5.29;100.00
43878;BME280;29815;48.184;11.268;2024-03-02T08:31:09;94570.16;;;5.35;100.00
43878;BME280;29815;48.184;11.268;2024-03-02T08:33:39;94568.06;;;5.53;100.00
43878;BME280;29815;48.184;11.268;2024-03-02T08:36:10;94572.41;;;5.69;100.00
43878;BME280;29815;48.184;11.268;2024-03-02T08:38:39;94576.66;;;5.75;100.00
43878;BME280;29815;48.184;11.268;2024-03-02T08:41:08;94576.97;;;5.84;100.00
43878;BME280;29815;48.184;11.268;2024-03-02T08:43:37;94575.94;;;5.90;100.00
43878;BME280;29815;48.184;11.268;2024-03-02T08:46:07;94571.69;;;5.99;100.00
43878;BME280;29815;48.184;11.268;2024-03-02T08:48:38;94570.09;;;6.13;100.00
43878;BME280;29815;48.184;11.268;2024-03-02T08:51:08;94566.66;;;6.23;100.00
43878;BME280;29815;48.184;11.268;2024-03-02T08:53:38;94565.56;;;6.34;100.00
43878;BME280;29815;48.184;11.268;2024-03-02T08:56:07;94576.00;;;6.45;100.00
43878;BME280;29815;48.184;11.268;2024-03-02T08:58:36;94569.81;;;6.60;100.00
43878;BME280;29815;48.184;11.268;2024-03-02T09:01:06;94568.22;;;6.74;100.00
43878;BME280;29815;48.184;11.268;2024-03-02T09:03:37;94574.59;;;6.89;100.00
43878;BME280;29815;48.184;11.268;2024-03-02T09:06:07;94575.38;;;7.04;100.00
43878;BME280;29815;48.184;11.268;2024-03-02T09:08:36;94568.91;;;7.16;100.00
43878;BME280;29815;48.184;11.268;2024-03-02T09:11:06;94574.53;;;7.24;100.00
43878;BME280;29815;48.184;11.268;2024-03-02T09:13:36;94578.25;;;7.33;100.00
43878;BME280;29815;48.184;11.268;2024-03-02T09:16:06;94570.97;;;7.44;100.00
43878;BME280;29815;48.184;11.268;2024-03-02T09:18:40;94570.66;;;7.56;100.00
43878;BME280;29815;48.184;11.268;2024-03-02T09:21:09;94573.31;;;7.66;100.00
43878;BME280;29815;48.184;11.268;2024-03-02T09:23:38;94569.47;;;7.77;100.00
43878;BME280;29815;48.184;11.268;2024-03-02T09:26:08;94569.44;;;7.87;100.00
43878;BME280;29815;48.184;11.268;2024-03-02T09:28:38;94573.38;;;8.00;100.00
43878;BME280;29815;48.184;11.268;2024-03-02T09:31:07;94567.44;;;8.08;100.00
43878;BME280;29815;48.184;11.268;2024-03-02T09:33:37;94567.66;;;8.17;100.00
43878;BME280;29815;48.184;11.268;2024-03-02T09:36:17;94557.63;;;8.27;100.00
43878;BME280;29815;48.184;11.268;2024-03-02T09:38:47;94558.69;;;8.36;100.00
43878;BME280;29815;48.184;11.268;2024-03-02T09:41:17;94558.38;;;8.43;100.00
43878;BME280;29815;48.184;11.268;2024-03-02T09:43:47;94551.66;;;8.45;100.00
43878;BME280;29815;48.184;11.268;2024-03-02T09:46:17;94551.59;;;8.51;100.00
43878;BME280;29815;48.184;11.268;2024-03-02T09:48:46;94546.72;;;8.58;100.00
43878;BME280;29815;48.184;11.268;2024-03-02T09:51:17;94555.47;;;8.68;100.00
43878;BME280;29815;48.184;11.268;2024-03-02T09:53:47;94549.19;;;8.78;100.00
43878;BME280;29815;48.184;11.268;2024-03-02T09:56:17;94551.31;;;8.81;100.00
43878;BME280;29815;48.184;11.268;2024-03-02T09:58:46;94554.16;;;8.95;100.00
43878;BME280;29815;48.184;11.268;2024-03-02T10:01:16;94552.94;;;9.06;100.00
43878;BME280;29815;48.184;11.268;2024-03-02T10:03:46;94554.44;;;9.17;100.00
43878;BME280;29815;48.184;11.268;2024-03-02T10:06:23;94550.59;;;9.28;100.00
43878;BME280;29815;48.184;11.268;2024-03-02T10:08:54;94554.72;;;9.39;100.00
43878;BME280;29815;48.184;11.268;2024-03-02T10:11:27;94548.50;;;9.44;100.00
43878;BME280;29815;48.184;11.268;2024-03-02T10:14:07;94549.81;;;9.46;100.00
43878;BME280;29815;48.184;11.268;2024-03-02T10:16:38;94541.19;;;9.49;100.00
43878;BME280;29815;48.184;11.268;2024-03-02T10:19:18;94542.22;;;9.54;100.00
43878;BME280;29815;48.184;11.268;2024-03-02T10:21:50;94543.38;;;9.47;100.00
43878;BME280;29815;48.184;11.268;2024-03-02T10:24:21;94551.66;;;9.51;100.00
43878;BME280;29815;48.184;11.268;2024-03-02T10:26:52;94538.16;;;9.56;100.00
43878;BME280;29815;48.184;11.268;2024-03-02T10:29:21;94545.91;;;9.58;100.00
43878;BME280;29815;48.184;11.268;2024-03-02T10:31:51;94546.66;;;9.63;100.00
43878;BME280;29815;48.184;11.268;2024-03-02T10:34:21;94540.41;;;9.68;100.00
43878;BME280;29815;48.184;11.268;2024-03-02T10:36:52;94547.63;;;9.72;100.00
43878;BME280;29815;48.184;11.268;2024-03-02T10:39:22;94537.31;;;9.79;100.00
43878;BME280;29815;48.184;11.268;2024-03-02T10:41:53;94532.66;;;9.85;100.00
43878;BME280;29815;48.184;11.268;2024-03-02T10:44:24;94522.34;;;9.92;100.00
43878;BME280;29815;48.184;11.268;2024-03-02T10:46:54;94519.16;;;9.90;100.00
43878;BME280;29815;48.184;11.268;2024-03-02T10:49:24;94514.72;;;9.99;100.00
43878;BME280;29815;48.184;11.268;2024-03-02T10:51:57;94517.84;;;10.06;100.00
43878;BME280;29815;48.184;11.268;2024-03-02T10:54:26;94506.72;;;10.13;100.00
43878;BME280;29815;48.184;11.268;2024-03-02T10:56:59;94507.72;;;10.17;100.00
43878;BME280;29815;48.184;11.268;2024-03-02T10:59:32;94498.25;;;10.25;100.00
43878;BME280;29815;48.184;11.268;2024-03-02T11:02:03;94498.75;;;10.27;100.00
43878;BME280;29815;48.184;11.268;2024-03-02T11:04:35;94495.84;;;10.23;100.00
43878;BME280;29815;48.184;11.268;2024-03-02T11:07:08;94491.03;;;10.20;100.00
43878;BME280;29815;48.184;11.268;2024-03-02T11:09:41;94489.66;;;10.23;100.00
43878;BME280;29815;48.184;11.268;2024-03-02T11:12:13;94482.16;;;10.38;100.00
43878;BME280;29815;48.184;11.268;2024-03-02T11:14:46;94481.75;;;10.45;100.00
43878;BME280;29815;48.184;11.268;2024-03-02T11:17:15;94479.00;;;10.50;100.00
43878;BME280;29815;48.184;11.268;2024-03-02T11:19:45;94473.81;;;10.54;100.00
43878;BME280;29815;48.184;11.268;2024-03-02T11:22:17;94466.47;;;10.59;100.00
43878;BME280;29815;48.184;11.268;2024-03-02T11:24:48;94469.88;;;10.65;100.00
43878;BME280;29815;48.184;11.268;2024-03-02T11:30:51;94457.22;;;10.79;100.00
43878;BME280;29815;48.184;11.268;2024-03-02T11:33:24;94456.34;;;10.83;100.00
43878;BME280;29815;48.184;11.268;2024-03-02T11:35:58;94455.94;;;10.90;100.00
43878;BME280;29815;48.184;11.268;2024-03-02T11:38:32;94446.28;;;10.89;100.00
43878;BME280;29815;48.184;11.268;2024-03-02T11:41:02;94449.25;;;10.88;100.00
43878;BME280;29815;48.184;11.268;2024-03-02T11:43:37;94443.88;;;10.88;100.00
43878;BME280;29815;48.184;11.268;2024-03-02T11:46:08;94441.09;;;10.93;100.00
43878;BME280;29815;48.184;11.268;2024-03-02T11:48:39;94436.88;;;11.00;100.00
43878;BME280;29815;48.184;11.268;2024-03-02T11:51:10;94430.91;;;11.03;100.00
43878;BME280;29815;48.184;11.268;2024-03-02T11:53:41;94431.00;;;11.12;100.00
43878;BME280;29815;48.184;11.268;2024-03-02T11:56:11;94420.75;;;11.14;100.00
43878;BME280;29815;48.184;11.268;2024-03-02T11:58:41;94413.22;;;11.25;100.00
43878;BME280;29815;48.184;11.268;2024-03-02T12:01:10;94411.53;;;11.29;100.00
43878;BME280;29815;48.184;11.268;2024-03-02T12:03:41;94407.25;;;11.28;100.00
43878;BME280;29815;48.184;11.268;2024-03-02T12:06:11;94402.75;;;11.37;100.00
43878;BME280;29815;48.184;11.268;2024-03-02T12:08:42;94395.84;;;11.44;100.00
43878;BME280;29815;48.184;11.268;2024-03-02T12:11:14;94394.63;;;11.50;100.00
43878;BME280;29815;48.184;11.268;2024-03-02T12:13:52;94385.78;;;11.72;100.00
43878;BME280;29815;48.184;11.268;2024-03-02T12:16:24;94373.69;;;11.83;100.00
43878;BME280;29815;48.184;11.268;2024-03-02T12:18:54;94370.19;;;11.83;100.00
43878;BME280;29815;48.184;11.268;2024-03-02T12:21:24;94374.66;;;11.88;100.00
43878;BME280;29815;48.184;11.268;2024-03-02T12:23:55;94364.34;;;12.03;100.00
43878;BME280;29815;48.184;11.268;2024-03-02T12:26:24;94363.25;;;12.13;100.00
43878;BME280;29815;48.184;11.268;2024-03-02T12:28:54;94351.72;;;12.21;100.00
43878;BME280;29815;48.184;11.268;2024-03-02T12:31:23;94358.09;;;12.25;100.00
43878;BME280;29815;48.184;11.268;2024-03-02T12:33:53;94347.81;;;12.27;100.00
43878;BME280;29815;48.184;11.268;2024-03-02T12:36:23;94346.53;;;12.25;100.00
43878;BME280;29815;48.184;11.268;2024-03-02T12:38:54;94344.03;;;12.37;100.00
43878;BME280;29815;48.184;11.268;2024-03-02T12:41:24;94329.66;;;12.50;100.00
43878;BME280;29815;48.184;11.268;2024-03-02T12:43:55;94322.84;;;12.61;100.00
43878;BME280;29815;48.184;11.268;2024-03-02T12:46:24;94326.03;;;12.63;100.00
43878;BME280;29815;48.184;11.268;2024-03-02T12:48:54;94322.13;;;12.78;100.00
43878;BME280;29815;48.184;11.268;2024-03-02T12:51:23;94319.59;;;12.90;100.00
43878;BME280;29815;48.184;11.268;2024-03-02T12:53:54;94314.88;;;13.04;100.00
43878;BME280;29815;48.184;11.268;2024-03-02T12:56:24;94311.91;;;13.23;100.00
43878;BME280;29815;48.184;11.268;2024-03-02T12:58:54;94299.06;;;13.46;100.00
43878;BME280;29815;48.184;11.268;2024-03-02T13:01:23;94296.84;;;13.65;100.00
43878;BME280;29815;48.184;11.268;2024-03-02T13:03:53;94292.84;;;13.88;100.00
43878;BME280;29815;48.184;11.268;2024-03-02T13:06:24;94292.47;;;14.07;100.00
43878;BME280;29815;48.184;11.268;2024-03-02T13:08:57;94286.66;;;14.26;100.00